sensor_id;sensor_type;location;lat;lon;timestamp;P1;durP1;ratioP1;P2;durP2;ratioP2
23304;SDS011;11821;51.456;8.844;2022-10-16T00:00:41;2.90;;;2.25;;
23304;SDS011;11821;51.456;8.844;2022-10-16T00:03:09;5.75;;;2.60;;
23304;SDS011;11821;51.456;8.844;2022-10-16T00:05:40;8.70;;;2.38;;
23304;SDS011;11821;51.456;8.844;2022-10-16T00:08:08;5.50;;;3.03;;
23304;SDS011;11821;51.456;8.844;2022-10-16T00:10:36;5.82;;;3.03;;
23304;SDS011;11821;51.456;8.844;2022-10-16T00:13:03;3.47;;;2.15;;
23304;SDS011;11821;51.456;8.844;2022-10-16T00:15:30;3.05;;;2.70;;
23304;SDS011;11821;51.456;8.844;2022-10-16T00:18:02;3.00;;;2.45;;
23304;SDS011;11821;51.456;8.844;2022-10-16T00:20:30;2.95;;;2.33;;
23304;SDS011;11821;51.456;8.844;2022-10-16T00:22:59;3.60;;;2.30;;
23304;SDS011;11821;51.456;8.844;2022-10-16T00:25:26;2.95;;;2.60;;
23304;SDS011;11821;51.456;8.844;2022-10-16T00:27:52;7.82;;;2.40;;
23304;SDS011;11821;51.456;8.844;2022-10-16T00:30:18;4.45;;;2.70;;
23304;SDS011;11821;51.456;8.844;2022-10-16T00:32:44;5.82;;;2.20;;
23304;SDS011;11821;51.456;8.844;2022-10-16T00:35:11;6.70;;;2.80;;
23304;SDS011;11821;51.456;8.844;2022-10-16T00:37:37;6.60;;;2.45;;
23304;SDS011;11821;51.456;8.844;2022-10-16T00:40:03;2.92;;;2.72;;
23304;SDS011;11821;51.456;8.844;2022-10-16T00:42:30;3.50;;;2.95;;
23304;SDS011;11821;51.456;8.844;2022-10-16T00:44:57;9.55;;;3.15;;
23304;SDS011;11821;51.456;8.844;2022-10-16T00:52:57;5.85;;;3.30;;
23304;SDS011;11821;51.456;8.844;2022-10-16T00:55:26;4.90;;;2.92;;
23304;SDS011;11821;51.456;8.844;2022-10-16T00:57:54;6.25;;;2.83;;
23304;SDS011;11821;51.456;8.844;2022-10-16T01:00:21;6.57;;;2.50;;
23304;SDS011;11821;51.456;8.844;2022-10-16T01:02:54;5.82;;;2.90;;
23304;SDS011;11821;51.456;8.844;2022-10-16T01:07:56;8.23;;;3.40;;
23304;SDS011;11821;51.456;8.844;2022-10-16T01:13:33;4.60;;;2.92;;
23304;SDS011;11821;51.456;8.844;2022-10-16T01:18:46;6.47;;;2.47;;
23304;SDS011;11821;51.456;8.844;2022-10-16T01:21:29;3.65;;;2.78;;
23304;SDS011;11821;51.456;8.844;2022-10-16T01:29:05;5.05;;;3.10;;
23304;SDS011;11821;51.456;8.844;2022-10-16T01:31:50;5.18;;;2.63;;
23304;SDS011;11821;51.456;8.844;2022-10-16T01:34:28;6.95;;;2.40;;
23304;SDS011;11821;51.456;8.844;2022-10-16T01:37:02;5.18;;;2.70;;
23304;SDS011;11821;51.456;8.844;2022-10-16T01:39:35;2.38;;;2.17;;
23304;SDS011;11821;51.456;8.844;2022-10-16T01:42:11;7.78;;;2.70;;
23304;SDS011;11821;51.456;8.844;2022-10-16T01:44:48;5.10;;;2.50;;
23304;SDS011;11821;51.456;8.844;2022-10-16T01:47:17;3.40;;;3.10;;
23304;SDS011;11821;51.456;8.844;2022-10-16T01:49:47;4.07;;;2.50;;
23304;SDS011;11821;51.456;8.844;2022-10-16T01:52:16;3.80;;;2.50;;
23304;SDS011;11821;51.456;8.844;2022-10-16T01:54:46;4.22;;;2.45;;
23304;SDS011;11821;51.456;8.844;2022-10-16T01:57:15;5.13;;;2.38;;
23304;SDS011;11821;51.456;8.844;2022-10-16T01:59:46;4.25;;;2.40;;
23304;SDS011;11821;51.456;8.844;2022-10-16T02:02:15;2.55;;;2.35;;
23304;SDS011;11821;51.456;8.844;2022-10-16T02:04:49;5.20;;;2.40;;
23304;SDS011;11821;51.456;8.844;2022-10-16T02:07:20;6.88;;;2.55;;
23304;SDS011;11821;51.456;8.844;2022-10-16T02:09:47;5.07;;;2.70;;
23304;SDS011;11821;51.456;8.844;2022-10-16T02:12:15;3.60;;;2.63;;
23304;SDS011;11821;51.456;8.844;2022-10-16T02:14:44;2.50;;;2.30;;
23304;SDS011;11821;51.456;8.844;2022-10-16T02:17:15;4.40;;;2.58;;
23304;SDS011;11821;51.456;8.844;2022-10-16T02:19:42;8.40;;;2.45;;
23304;SDS011;11821;51.456;8.844;2022-10-16T02:22:15;5.25;;;2.80;;
23304;SDS011;11821;51.456;8.844;2022-10-16T02:24:57;4.17;;;2.80;;
23304;SDS011;11821;51.456;8.844;2022-10-16T02:33:15;3.67;;;2.38;;
23304;SDS011;11821;51.456;8.844;2022-10-16T02:35:44;8.18;;;2.58;;
23304;SDS011;11821;51.456;8.844;2022-10-16T02:38:14;4.05;;;2.90;;
23304;SDS011;11821;51.456;8.844;2022-10-16T02:40:41;6.00;;;2.45;;
23304;SDS011;11821;51.456;8.844;2022-10-16T02:43:08;6.82;;;2.58;;
23304;SDS011;11821;51.456;8.844;2022-10-16T02:45:35;3.42;;;2.72;;
23304;SDS011;11821;51.456;8.844;2022-10-16T02:48:01;2.85;;;2.38;;
23304;SDS011;11821;51.456;8.844;2022-10-16T02:50:28;8.23;;;2.33;;
23304;SDS011;11821;51.456;8.844;2022-10-16T02:52:54;6.43;;;2.88;;
23304;SDS011;11821;51.456;8.844;2022-10-16T02:55:21;5.18;;;2.63;;
23304;SDS011;11821;51.456;8.844;2022-10-16T02:57:47;10.05;;;2.38;;
23304;SDS011;11821;51.456;8.844;2022-10-16T03:00:15;10.55;;;2.40;;
23304;SDS011;11821;51.456;8.844;2022-10-16T03:02:42;3.25;;;2.97;;
23304;SDS011;11821;51.456;8.844;2022-10-16T03:05:09;3.58;;;2.55;;
23304;SDS011;11821;51.456;8.844;2022-10-16T03:07:36;5.90;;;2.42;;
23304;SDS011;11821;51.456;8.844;2022-10-16T03:10:02;4.60;;;2.33;;
23304;SDS011;11821;51.456;8.844;2022-10-16T03:12:29;4.03;;;3.05;;
23304;SDS011;11821;51.456;8.844;2022-10-16T03:14:55;6.82;;;2.30;;
23304;SDS011;11821;51.456;8.844;2022-10-16T03:17:22;4.25;;;2.22;;
23304;SDS011;11821;51.456;8.844;2022-10-16T03:19:49;3.72;;;2.42;;
23304;SDS011;11821;51.456;8.844;2022-10-16T03:22:15;6.78;;;2.72;;
23304;SDS011;11821;51.456;8.844;2022-10-16T03:24:42;3.42;;;3.10;;
23304;SDS011;11821;51.456;8.844;2022-10-16T03:27:08;6.40;;;2.65;;
23304;SDS011;11821;51.456;8.844;2022-10-16T03:29:34;3.83;;;3.00;;
23304;SDS011;11821;51.456;8.844;2022-10-16T03:32:01;5.53;;;2.50;;
23304;SDS011;11821;51.456;8.844;2022-10-16T03:34:28;6.93;;;2.40;;
23304;SDS011;11821;51.456;8.844;2022-10-16T03:36:55;4.20;;;2.40;;
23304;SDS011;11821;51.456;8.844;2022-10-16T03:39:21;5.35;;;3.00;;
23304;SDS011;11821;51.456;8.844;2022-10-16T03:41:47;4.22;;;2.47;;
23304;SDS011;11821;51.456;8.844;2022-10-16T03:44:14;3.67;;;2.45;;
23304;SDS011;11821;51.456;8.844;2022-10-16T03:46:40;5.05;;;2.55;;
23304;SDS011;11821;51.456;8.844;2022-10-16T03:49:07;5.72;;;2.67;;
23304;SDS011;11821;51.456;8.844;2022-10-16T03:51:33;6.18;;;2.55;;
23304;SDS011;11821;51.456;8.844;2022-10-16T03:53:59;11.18;;;2.47;;
23304;SDS011;11821;51.456;8.844;2022-10-16T03:56:26;4.38;;;2.72;;
23304;SDS011;11821;51.456;8.844;2022-10-16T03:58:52;5.93;;;2.88;;
23304;SDS011;11821;51.456;8.844;2022-10-16T04:01:18;11.50;;;2.95;;
23304;SDS011;11821;51.456;8.844;2022-10-16T04:03:45;4.18;;;2.50;;
23304;SDS011;11821;51.456;8.844;2022-10-16T04:06:11;3.35;;;2.88;;
23304;SDS011;11821;51.456;8.844;2022-10-16T04:08:37;3.40;;;2.70;;
23304;SDS011;11821;51.456;8.844;2022-10-16T04:11:04;4.40;;;2.85;;
23304;SDS011;11821;51.456;8.844;2022-10-16T04:13:31;2.95;;;2.45;;
23304;SDS011;11821;51.456;8.844;2022-10-16T04:15:57;3.70;;;2.72;;
23304;SDS011;11821;51.456;8.844;2022-10-16T04:18:23;3.70;;;2.45;;
23304;SDS011;11821;51.456;8.844;2022-10-16T04:20:53;4.32;;;3.05;;
23304;SDS011;11821;51.456;8.844;2022-10-16T04:23:19;2.58;;;2.05;;
23304;SDS011;11821;51.456;8.844;2022-10-16T04:25:46;5.80;;;2.80;;
23304;SDS011;11821;51.456;8.844;2022-10-16T04:28:12;6.28;;;3.15;;
23304;SDS011;11821;51.456;8.844;2022-10-16T04:30:38;6.05;;;3.17;;
23304;SDS011;11821;51.456;8.844;2022-10-16T04:33:05;3.50;;;2.72;;
23304;SDS011;11821;51.456;8.844;2022-10-16T04:35:31;6.63;;;2.90;;
23304;SDS011;11821;51.456;8.844;2022-10-16T04:37:58;7.07;;;3.08;;
23304;SDS011;11821;51.456;8.844;2022-10-16T04:40:24;2.35;;;1.42;;
23304;SDS011;11821;51.456;8.844;2022-10-16T04:42:50;2.53;;;2.33;;
23304;SDS011;11821;51.456;8.844;2022-10-16T04:45:17;2.55;;;2.35;;
23304;SDS011;11821;51.456;8.844;2022-10-16T04:47:43;3.47;;;2.30;;
23304;SDS011;11821;51.456;8.844;2022-10-16T04:50:10;5.45;;;2.85;;
23304;SDS011;11821;51.456;8.844;2022-10-16T04:52:36;3.13;;;2.78;;
23304;SDS011;11821;51.456;8.844;2022-10-16T04:55:02;6.60;;;3.40;;
23304;SDS011;11821;51.456;8.844;2022-10-16T04:57:29;4.88;;;2.50;;
23304;SDS011;11821;51.456;8.844;2022-10-16T04:59:56;6.75;;;2.80;;
23304;SDS011;11821;51.456;8.844;2022-10-16T05:02:22;2.90;;;2.55;;
23304;SDS011;11821;51.456;8.844;2022-10-16T05:04:49;2.83;;;2.63;;
23304;SDS011;11821;51.456;8.844;2022-10-16T05:07:15;3.30;;;2.50;;
23304;SDS011;11821;51.456;8.844;2022-10-16T05:09:41;4.75;;;4.28;;
23304;SDS011;11821;51.456;8.844;2022-10-16T05:12:08;4.93;;;4.38;;
23304;SDS011;11821;51.456;8.844;2022-10-16T05:14:34;5.80;;;3.95;;
23304;SDS011;11821;51.456;8.844;2022-10-16T05:17:00;5.50;;;4.78;;
23304;SDS011;11821;51.456;8.844;2022-10-16T05:19:27;6.43;;;3.83;;
23304;SDS011;11821;51.456;8.844;2022-10-16T05:21:53;3.42;;;2.97;;
23304;SDS011;11821;51.456;8.844;2022-10-16T05:24:19;5.95;;;3.22;;
23304;SDS011;11821;51.456;8.844;2022-10-16T05:26:46;6.45;;;3.10;;
23304;SDS011;11821;51.456;8.844;2022-10-16T05:29:12;5.10;;;3.10;;
23304;SDS011;11821;51.456;8.844;2022-10-16T05:31:39;8.38;;;2.70;;
23304;SDS011;11821;51.456;8.844;2022-10-16T05:34:05;3.40;;;2.90;;
23304;SDS011;11821;51.456;8.844;2022-10-16T05:36:31;3.45;;;3.00;;
23304;SDS011;11821;51.456;8.844;2022-10-16T05:38:58;3.10;;;2.80;;
23304;SDS011;11821;51.456;8.844;2022-10-16T05:41:24;3.10;;;2.80;;
23304;SDS011;11821;51.456;8.844;2022-10-16T05:43:52;3.35;;;2.88;;
23304;SDS011;11821;51.456;8.844;2022-10-16T05:46:18;7.28;;;3.60;;
23304;SDS011;11821;51.456;8.844;2022-10-16T05:48:45;7.75;;;3.33;;
23304;SDS011;11821;51.456;8.844;2022-10-16T05:51:12;3.38;;;2.78;;
23304;SDS011;11821;51.456;8.844;2022-10-16T05:53:40;4.43;;;3.55;;
23304;SDS011;11821;51.456;8.844;2022-10-16T05:56:09;6.60;;;3.08;;
23304;SDS011;11821;51.456;8.844;2022-10-16T05:58:37;4.45;;;3.65;;
23304;SDS011;11821;51.456;8.844;2022-10-16T06:01:07;4.50;;;3.20;;
23304;SDS011;11821;51.456;8.844;2022-10-16T06:03:38;3.20;;;2.80;;
23304;SDS011;11821;51.456;8.844;2022-10-16T06:06:08;7.70;;;2.90;;
23304;SDS011;11821;51.456;8.844;2022-10-16T06:08:35;6.13;;;3.30;;
23304;SDS011;11821;51.456;8.844;2022-10-16T06:11:02;3.75;;;2.95;;
23304;SDS011;11821;51.456;8.844;2022-10-16T06:13:33;5.72;;;3.05;;
23304;SDS011;11821;51.456;8.844;2022-10-16T06:16:00;3.30;;;3.00;;
23304;SDS011;11821;51.456;8.844;2022-10-16T06:18:27;5.93;;;3.75;;
23304;SDS011;11821;51.456;8.844;2022-10-16T06:20:55;4.15;;;3.75;;
23304;SDS011;11821;51.456;8.844;2022-10-16T06:23:22;5.35;;;4.95;;
23304;SDS011;11821;51.456;8.844;2022-10-16T06:25:48;5.00;;;4.25;;
23304;SDS011;11821;51.456;8.844;2022-10-16T06:28:15;8.85;;;4.32;;
23304;SDS011;11821;51.456;8.844;2022-10-16T06:30:42;6.15;;;4.88;;
23304;SDS011;11821;51.456;8.844;2022-10-16T06:33:10;7.53;;;4.90;;
23304;SDS011;11821;51.456;8.844;2022-10-16T06:35:37;4.25;;;3.25;;
23304;SDS011;11821;51.456;8.844;2022-10-16T06:38:03;5.13;;;3.20;;
23304;SDS011;11821;51.456;8.844;2022-10-16T06:40:29;4.65;;;2.80;;
23304;SDS011;11821;51.456;8.844;2022-10-16T06:42:56;9.07;;;3.75;;
23304;SDS011;11821;51.456;8.844;2022-10-16T06:45:22;4.97;;;3.05;;
23304;SDS011;11821;51.456;8.844;2022-10-16T06:47:48;13.70;;;4.40;;
23304;SDS011;11821;51.456;8.844;2022-10-16T06:50:15;10.02;;;6.28;;
23304;SDS011;11821;51.456;8.844;2022-10-16T06:52:41;6.15;;;3.65;;
23304;SDS011;11821;51.456;8.844;2022-10-16T06:55:07;5.82;;;2.70;;
23304;SDS011;11821;51.456;8.844;2022-10-16T06:57:33;3.70;;;3.25;;
23304;SDS011;11821;51.456;8.844;2022-10-16T07:00:00;6.50;;;2.95;;
23304;SDS011;11821;51.456;8.844;2022-10-16T07:02:26;3.85;;;3.30;;
23304;SDS011;11821;51.456;8.844;2022-10-16T07:04:52;7.80;;;3.90;;
23304;SDS011;11821;51.456;8.844;2022-10-16T07:07:19;4.65;;;3.60;;
23304;SDS011;11821;51.456;8.844;2022-10-16T07:09:45;3.50;;;3.03;;
23304;SDS011;11821;51.456;8.844;2022-10-16T07:12:11;4.22;;;3.85;;
23304;SDS011;11821;51.456;8.844;2022-10-16T07:14:38;11.18;;;4.05;;
23304;SDS011;11821;51.456;8.844;2022-10-16T07:17:04;3.97;;;3.67;;
23304;SDS011;11821;51.456;8.844;2022-10-16T07:19:30;4.63;;;3.55;;
23304;SDS011;11821;51.456;8.844;2022-10-16T07:21:57;6.72;;;3.90;;
23304;SDS011;11821;51.456;8.844;2022-10-16T07:24:23;3.60;;;3.30;;
23304;SDS011;11821;51.456;8.844;2022-10-16T07:26:50;5.93;;;3.45;;
23304;SDS011;11821;51.456;8.844;2022-10-16T07:29:17;8.10;;;3.08;;
23304;SDS011;11821;51.456;8.844;2022-10-16T07:31:45;6.78;;;3.53;;
23304;SDS011;11821;51.456;8.844;2022-10-16T07:34:13;4.30;;;3.15;;
23304;SDS011;11821;51.456;8.844;2022-10-16T07:36:40;5.97;;;3.42;;
23304;SDS011;11821;51.456;8.844;2022-10-16T07:39:06;5.28;;;3.17;;
23304;SDS011;11821;51.456;8.844;2022-10-16T07:41:34;10.88;;;3.78;;
23304;SDS011;11821;51.456;8.844;2022-10-16T07:44:02;9.50;;;3.10;;
23304;SDS011;11821;51.456;8.844;2022-10-16T07:46:29;3.40;;;3.10;;
23304;SDS011;11821;51.456;8.844;2022-10-16T07:48:56;5.88;;;2.60;;
23304;SDS011;11821;51.456;8.844;2022-10-16T07:51:23;4.63;;;4.10;;
23304;SDS011;11821;51.456;8.844;2022-10-16T07:53:50;10.95;;;6.57;;
23304;SDS011;11821;51.456;8.844;2022-10-16T07:56:18;13.02;;;9.02;;
23304;SDS011;11821;51.456;8.844;2022-10-16T07:58:45;15.65;;;10.20;;
23304;SDS011;11821;51.456;8.844;2022-10-16T08:01:13;12.23;;;9.10;;
23304;SDS011;11821;51.456;8.844;2022-10-16T08:03:44;97.72;;;44.97;;
23304;SDS011;11821;51.456;8.844;2022-10-16T08:06:11;48.42;;;25.38;;
23304;SDS011;11821;51.456;8.844;2022-10-16T08:08:38;77.65;;;32.72;;
23304;SDS011;11821;51.456;8.844;2022-10-16T08:11:04;32.40;;;15.45;;
23304;SDS011;11821;51.456;8.844;2022-10-16T08:13:33;30.48;;;12.95;;
23304;SDS011;11821;51.456;8.844;2022-10-16T08:16:00;19.45;;;9.65;;
23304;SDS011;11821;51.456;8.844;2022-10-16T08:18:27;5.95;;;5.35;;
23304;SDS011;11821;51.456;8.844;2022-10-16T08:20:57;8.15;;;4.68;;
23304;SDS011;11821;51.456;8.844;2022-10-16T08:23:25;4.30;;;3.20;;
23304;SDS011;11821;51.456;8.844;2022-10-16T08:25:53;7.45;;;3.65;;
23304;SDS011;11821;51.456;8.844;2022-10-16T08:28:19;4.20;;;3.20;;
23304;SDS011;11821;51.456;8.844;2022-10-16T08:30:46;4.63;;;3.95;;
23304;SDS011;11821;51.456;8.844;2022-10-16T08:33:13;6.50;;;4.45;;
23304;SDS011;11821;51.456;8.844;2022-10-16T08:35:39;7.78;;;4.65;;
23304;SDS011;11821;51.456;8.844;2022-10-16T08:38:06;4.97;;;4.00;;
23304;SDS011;11821;51.456;8.844;2022-10-16T08:40:33;10.73;;;6.65;;
23304;SDS011;11821;51.456;8.844;2022-10-16T08:48:53;12.55;;;7.45;;
23304;SDS011;11821;51.456;8.844;2022-10-16T08:51:26;16.75;;;12.15;;
23304;SDS011;11821;51.456;8.844;2022-10-16T08:53:56;11.05;;;7.53;;
23304;SDS011;11821;51.456;8.844;2022-10-16T08:56:24;7.05;;;5.05;;
23304;SDS011;11821;51.456;8.844;2022-10-16T08:58:52;6.43;;;4.15;;
23304;SDS011;11821;51.456;8.844;2022-10-16T09:01:20;4.07;;;3.42;;
23304;SDS011;11821;51.456;8.844;2022-10-16T09:11:59;2.78;;;1.92;;
23304;SDS011;11821;51.456;8.844;2022-10-16T09:23:08;5.10;;;3.50;;
23304;SDS011;11821;51.456;8.844;2022-10-16T09:25:45;3.13;;;2.10;;
23304;SDS011;11821;51.456;8.844;2022-10-16T09:28:15;1.83;;;1.50;;
23304;SDS011;11821;51.456;8.844;2022-10-16T09:30:43;1.38;;;1.13;;
23304;SDS011;11821;51.456;8.844;2022-10-16T09:33:12;4.47;;;1.40;;
23304;SDS011;11821;51.456;8.844;2022-10-16T09:35:39;2.15;;;1.15;;
23304;SDS011;11821;51.456;8.844;2022-10-16T09:38:08;7.30;;;4.00;;
23304;SDS011;11821;51.456;8.844;2022-10-16T09:40:45;3.35;;;1.95;;
23304;SDS011;11821;51.456;8.844;2022-10-16T09:43:25;3.85;;;2.28;;
23304;SDS011;11821;51.456;8.844;2022-10-16T09:45:58;3.50;;;1.52;;
23304;SDS011;11821;51.456;8.844;2022-10-16T09:48:36;4.72;;;2.65;;
23304;SDS011;11821;51.456;8.844;2022-10-16T09:51:23;12.07;;;8.02;;
23304;SDS011;11821;51.456;8.844;2022-10-16T09:53:53;4.13;;;2.00;;
23304;SDS011;11821;51.456;8.844;2022-10-16T09:56:24;2.80;;;1.02;;
23304;SDS011;11821;51.456;8.844;2022-10-16T09:58:53;2.60;;;0.75;;
23304;SDS011;11821;51.456;8.844;2022-10-16T10:01:43;1.45;;;0.80;;
23304;SDS011;11821;51.456;8.844;2022-10-16T10:04:15;0.65;;;0.50;;
23304;SDS011;11821;51.456;8.844;2022-10-16T10:12:01;1.98;;;0.52;;
23304;SDS011;11821;51.456;8.844;2022-10-16T10:17:14;1.45;;;0.70;;
23304;SDS011;11821;51.456;8.844;2022-10-16T10:22:17;1.55;;;0.70;;
23304;SDS011;11821;51.456;8.844;2022-10-16T10:30:37;0.90;;;0.45;;
23304;SDS011;11821;51.456;8.844;2022-10-16T10:44:13;2.85;;;0.60;;
23304;SDS011;11821;51.456;8.844;2022-10-16T10:46:49;1.70;;;0.60;;
23304;SDS011;11821;51.456;8.844;2022-10-16T11:00:57;0.80;;;0.40;;
23304;SDS011;11821;51.456;8.844;2022-10-16T11:08:51;1.23;;;0.60;;
23304;SDS011;11821;51.456;8.844;2022-10-16T11:14:34;1.30;;;0.40;;
23304;SDS011;11821;51.456;8.844;2022-10-16T11:17:06;0.68;;;0.40;;
23304;SDS011;11821;51.456;8.844;2022-10-16T11:30:32;0.32;;;0.30;;
23304;SDS011;11821;51.456;8.844;2022-10-16T11:33:13;0.52;;;0.28;;
23304;SDS011;11821;51.456;8.844;2022-10-16T11:41:46;3.60;;;0.35;;
23304;SDS011;11821;51.456;8.844;2022-10-16T11:47:19;0.82;;;0.40;;
23304;SDS011;11821;51.456;8.844;2022-10-16T11:50:09;3.13;;;0.30;;
23304;SDS011;11821;51.456;8.844;2022-10-16T11:52:55;1.35;;;0.60;;
23304;SDS011;11821;51.456;8.844;2022-10-16T11:55:29;0.50;;;0.25;;
23304;SDS011;11821;51.456;8.844;2022-10-16T11:58:07;1.83;;;0.38;;
23304;SDS011;11821;51.456;8.844;2022-10-16T12:06:10;1.15;;;0.50;;
23304;SDS011;11821;51.456;8.844;2022-10-16T12:08:39;0.52;;;0.40;;
23304;SDS011;11821;51.456;8.844;2022-10-16T12:11:20;4.32;;;0.30;;
23304;SDS011;11821;51.456;8.844;2022-10-16T12:13:46;0.63;;;0.35;;
23304;SDS011;11821;51.456;8.844;2022-10-16T12:18:41;1.13;;;0.43;;
23304;SDS011;11821;51.456;8.844;2022-10-16T12:21:12;0.60;;;0.30;;
23304;SDS011;11821;51.456;8.844;2022-10-16T12:26:25;1.02;;;0.32;;
23304;SDS011;11821;51.456;8.844;2022-10-16T12:29:09;0.95;;;0.30;;
23304;SDS011;11821;51.456;8.844;2022-10-16T12:31:45;0.95;;;0.20;;
23304;SDS011;11821;51.456;8.844;2022-10-16T12:34:17;1.40;;;0.30;;
23304;SDS011;11821;51.456;8.844;2022-10-16T12:36:48;3.60;;;0.63;;
23304;SDS011;11821;51.456;8.844;2022-10-16T12:39:24;2.55;;;0.30;;
23304;SDS011;11821;51.456;8.844;2022-10-16T12:44:49;0.95;;;0.30;;
23304;SDS011;11821;51.456;8.844;2022-10-16T12:47:23;0.57;;;0.20;;
23304;SDS011;11821;51.456;8.844;2022-10-16T12:49:59;0.40;;;0.30;;
23304;SDS011;11821;51.456;8.844;2022-10-16T12:52:34;0.45;;;0.22;;
23304;SDS011;11821;51.456;8.844;2022-10-16T12:55:05;1.90;;;0.45;;
23304;SDS011;11821;51.456;8.844;2022-10-16T13:00:48;1.20;;;0.40;;
23304;SDS011;11821;51.456;8.844;2022-10-16T13:03:51;1.23;;;0.30;;
23304;SDS011;11821;51.456;8.844;2022-10-16T13:23:09;2.35;;;0.40;;
23304;SDS011;11821;51.456;8.844;2022-10-16T13:28:27;0.30;;;0.30;;
23304;SDS011;11821;51.456;8.844;2022-10-16T13:30:56;0.43;;;0.30;;
23304;SDS011;11821;51.456;8.844;2022-10-16T13:36:05;0.73;;;0.38;;
23304;SDS011;11821;51.456;8.844;2022-10-16T13:38:33;3.13;;;0.40;;
23304;SDS011;11821;51.456;8.844;2022-10-16T13:41:05;0.57;;;0.22;;
23304;SDS011;11821;51.456;8.844;2022-10-16T13:43:40;3.83;;;1.23;;
23304;SDS011;11821;51.456;8.844;2022-10-16T13:46:16;1.20;;;1.10;;
23304;SDS011;11821;51.456;8.844;2022-10-16T13:49:00;1.83;;;0.70;;
23304;SDS011;11821;51.456;8.844;2022-10-16T13:51:55;0.50;;;0.40;;
23304;SDS011;11821;51.456;8.844;2022-10-16T13:54:23;1.17;;;0.93;;
23304;SDS011;11821;51.456;8.844;2022-10-16T13:56:51;1.63;;;0.20;;
23304;SDS011;11821;51.456;8.844;2022-10-16T13:59:32;0.82;;;0.45;;
23304;SDS011;11821;51.456;8.844;2022-10-16T14:02:00;1.58;;;0.57;;
23304;SDS011;11821;51.456;8.844;2022-10-16T14:04:43;1.38;;;0.35;;
23304;SDS011;11821;51.456;8.844;2022-10-16T14:07:13;2.50;;;0.40;;
23304;SDS011;11821;51.456;8.844;2022-10-16T14:09:47;0.75;;;0.30;;
23304;SDS011;11821;51.456;8.844;2022-10-16T14:12:15;0.98;;;0.30;;
23304;SDS011;11821;51.456;8.844;2022-10-16T14:14:46;0.60;;;0.40;;
23304;SDS011;11821;51.456;8.844;2022-10-16T14:17:16;1.27;;;0.30;;
23304;SDS011;11821;51.456;8.844;2022-10-16T14:19:46;1.75;;;0.30;;
23304;SDS011;11821;51.456;8.844;2022-10-16T14:22:37;0.57;;;0.30;;
23304;SDS011;11821;51.456;8.844;2022-10-16T14:30:51;1.85;;;0.47;;
23304;SDS011;11821;51.456;8.844;2022-10-16T14:36:02;1.00;;;0.22;;
23304;SDS011;11821;51.456;8.844;2022-10-16T14:38:29;0.40;;;0.40;;
23304;SDS011;11821;51.456;8.844;2022-10-16T14:40:57;0.88;;;0.60;;
23304;SDS011;11821;51.456;8.844;2022-10-16T14:45:59;0.93;;;0.43;;
23304;SDS011;11821;51.456;8.844;2022-10-16T14:48:29;1.15;;;0.30;;
23304;SDS011;11821;51.456;8.844;2022-10-16T14:50:55;0.38;;;0.35;;
23304;SDS011;11821;51.456;8.844;2022-10-16T14:53:21;0.95;;;0.40;;
23304;SDS011;11821;51.456;8.844;2022-10-16T14:55:48;1.77;;;0.85;;
23304;SDS011;11821;51.456;8.844;2022-10-16T15:00:43;0.55;;;0.30;;
23304;SDS011;11821;51.456;8.844;2022-10-16T15:03:09;1.02;;;0.40;;
23304;SDS011;11821;51.456;8.844;2022-10-16T15:05:36;0.45;;;0.40;;
23304;SDS011;11821;51.456;8.844;2022-10-16T15:08:02;2.15;;;0.70;;
23304;SDS011;11821;51.456;8.844;2022-10-16T15:10:42;2.30;;;0.55;;
23304;SDS011;11821;51.456;8.844;2022-10-16T15:13:13;1.98;;;0.40;;
23304;SDS011;11821;51.456;8.844;2022-10-16T15:15:43;1.52;;;0.50;;
23304;SDS011;11821;51.456;8.844;2022-10-16T15:18:11;6.03;;;0.50;;
23304;SDS011;11821;51.456;8.844;2022-10-16T15:20:40;1.20;;;0.40;;
23304;SDS011;11821;51.456;8.844;2022-10-16T15:23:14;0.85;;;0.50;;
23304;SDS011;11821;51.456;8.844;2022-10-16T15:25:47;1.85;;;0.90;;
23304;SDS011;11821;51.456;8.844;2022-10-16T15:28:20;1.88;;;1.13;;
23304;SDS011;11821;51.456;8.844;2022-10-16T15:30:52;3.70;;;0.80;;
23304;SDS011;11821;51.456;8.844;2022-10-16T15:33:21;2.97;;;0.60;;
23304;SDS011;11821;51.456;8.844;2022-10-16T15:35:54;0.47;;;0.30;;
23304;SDS011;11821;51.456;8.844;2022-10-16T15:38:21;1.75;;;0.50;;
23304;SDS011;11821;51.456;8.844;2022-10-16T15:40:48;0.77;;;0.45;;
23304;SDS011;11821;51.456;8.844;2022-10-16T15:43:18;1.83;;;0.38;;
23304;SDS011;11821;51.456;8.844;2022-10-16T15:45:47;1.27;;;0.50;;
23304;SDS011;11821;51.456;8.844;2022-10-16T15:48:31;1.67;;;0.70;;
23304;SDS011;11821;51.456;8.844;2022-10-16T15:51:04;1.00;;;0.65;;
23304;SDS011;11821;51.456;8.844;2022-10-16T15:53:32;0.60;;;0.40;;
23304;SDS011;11821;51.456;8.844;2022-10-16T15:56:03;0.50;;;0.30;;
23304;SDS011;11821;51.456;8.844;2022-10-16T15:58:30;1.30;;;0.45;;
23304;SDS011;11821;51.456;8.844;2022-10-16T16:00:57;1.20;;;0.38;;
23304;SDS011;11821;51.456;8.844;2022-10-16T16:03:27;2.47;;;0.40;;
23304;SDS011;11821;51.456;8.844;2022-10-16T16:05:54;2.35;;;0.50;;
23304;SDS011;11821;51.456;8.844;2022-10-16T16:08:21;3.15;;;0.30;;
23304;SDS011;11821;51.456;8.844;2022-10-16T16:11:04;2.33;;;0.50;;
23304;SDS011;11821;51.456;8.844;2022-10-16T16:13:32;3.20;;;0.88;;
23304;SDS011;11821;51.456;8.844;2022-10-16T16:15:59;1.13;;;0.60;;
23304;SDS011;11821;51.456;8.844;2022-10-16T16:18:26;0.90;;;0.70;;
23304;SDS011;11821;51.456;8.844;2022-10-16T16:20:54;0.52;;;0.50;;
23304;SDS011;11821;51.456;8.844;2022-10-16T16:23:20;1.30;;;0.90;;
23304;SDS011;11821;51.456;8.844;2022-10-16T16:28:33;2.00;;;1.00;;
23304;SDS011;11821;51.456;8.844;2022-10-16T16:30:59;1.83;;;0.82;;
23304;SDS011;11821;51.456;8.844;2022-10-16T16:33:26;1.88;;;1.10;;
23304;SDS011;11821;51.456;8.844;2022-10-16T16:35:56;4.68;;;1.05;;
23304;SDS011;11821;51.456;8.844;2022-10-16T16:38:26;8.02;;;1.35;;
23304;SDS011;11821;51.456;8.844;2022-10-16T16:40:53;2.28;;;1.50;;
23304;SDS011;11821;51.456;8.844;2022-10-16T16:43:26;7.28;;;2.70;;
23304;SDS011;11821;51.456;8.844;2022-10-16T16:45:53;2.75;;;2.47;;
23304;SDS011;11821;51.456;8.844;2022-10-16T16:48:20;5.28;;;2.78;;
23304;SDS011;11821;51.456;8.844;2022-10-16T16:50:47;6.22;;;3.05;;
23304;SDS011;11821;51.456;8.844;2022-10-16T16:53:14;4.43;;;3.42;;
23304;SDS011;11821;51.456;8.844;2022-10-16T16:55:40;4.60;;;3.15;;
23304;SDS011;11821;51.456;8.844;2022-10-16T16:58:06;5.93;;;3.33;;
23304;SDS011;11821;51.456;8.844;2022-10-16T17:00:32;3.35;;;2.40;;
23304;SDS011;11821;51.456;8.844;2022-10-16T17:02:59;6.53;;;2.80;;
23304;SDS011;11821;51.456;8.844;2022-10-16T17:05:25;4.90;;;2.85;;
23304;SDS011;11821;51.456;8.844;2022-10-16T17:07:52;5.05;;;2.65;;
23304;SDS011;11821;51.456;8.844;2022-10-16T17:10:18;10.25;;;2.10;;
23304;SDS011;11821;51.456;8.844;2022-10-16T17:12:44;4.00;;;3.15;;
23304;SDS011;11821;51.456;8.844;2022-10-16T17:15:10;8.57;;;3.70;;
23304;SDS011;11821;51.456;8.844;2022-10-16T17:17:37;4.38;;;3.63;;
23304;SDS011;11821;51.456;8.844;2022-10-16T17:20:03;7.53;;;3.38;;
23304;SDS011;11821;51.456;8.844;2022-10-16T17:22:30;9.80;;;3.20;;
23304;SDS011;11821;51.456;8.844;2022-10-16T17:24:56;6.28;;;2.88;;
23304;SDS011;11821;51.456;8.844;2022-10-16T17:27:22;6.45;;;3.92;;
23304;SDS011;11821;51.456;8.844;2022-10-16T17:29:52;10.57;;;9.43;;
23304;SDS011;11821;51.456;8.844;2022-10-16T17:32:18;7.85;;;5.40;;
23304;SDS011;11821;51.456;8.844;2022-10-16T17:34:46;7.75;;;4.85;;
23304;SDS011;11821;51.456;8.844;2022-10-16T17:37:12;12.43;;;10.02;;
23304;SDS011;11821;51.456;8.844;2022-10-16T17:39:39;15.23;;;9.20;;
23304;SDS011;11821;51.456;8.844;2022-10-16T17:42:05;8.43;;;6.30;;
23304;SDS011;11821;51.456;8.844;2022-10-16T17:44:31;6.40;;;3.08;;
23304;SDS011;11821;51.456;8.844;2022-10-16T17:46:58;4.80;;;2.97;;